createdAt,value
2017-12-24T00:00:55.027Z,95.08
2017-12-24T00:03:24.859Z,95.43
2017-12-24T00:05:54.708Z,95.32
2017-12-24T00:08:24.510Z,95.16
2017-12-24T00:10:54.377Z,95.26
2017-12-24T00:13:24.166Z,95.33
2017-12-24T00:15:56.127Z,95.27
2017-12-24T00:18:28.046Z,95.19
2017-12-24T00:20:59.226Z,95.11
2017-12-24T00:23:29.206Z,95.19
2017-12-24T00:25:59.043Z,95.09
2017-12-24T00:28:28.835Z,95.16
2017-12-24T00:30:58.626Z,95.39
2017-12-24T00:33:28.454Z,95.42
2017-12-24T00:35:58.294Z,95.11
2017-12-24T00:38:28.342Z,95.37
2017-12-24T00:40:58.123Z,95.28
2017-12-24T00:43:27.961Z,95.41
2017-12-24T00:45:57.771Z,95.38
2017-12-24T00:48:27.611Z,95.23
2017-12-24T00:50:57.385Z,95.16
2017-12-24T00:53:27.162Z,95.27
2017-12-24T00:55:57.004Z,95.40
2017-12-24T00:58:26.796Z,95.31
2017-12-24T01:00:56.615Z,95.28
2017-12-24T01:03:26.474Z,95.21
2017-12-24T01:05:56.106Z,95.03
2017-12-24T01:08:26.122Z,95.04
2017-12-24T01:10:55.911Z,94.98
2017-12-24T01:13:25.553Z,95.12
2017-12-24T01:15:55.332Z,95.43
2017-12-24T01:18:25.171Z,95.25
2017-12-24T01:20:55.215Z,95.26
2017-12-24T01:23:25.023Z,95.36
2017-12-24T01:25:54.870Z,95.21
2017-12-24T01:28:24.662Z,95.42
2017-12-24T01:30:54.486Z,95.40
2017-12-24T01:33:24.282Z,95.42
2017-12-24T01:35:54.130Z,95.34
2017-12-24T01:38:23.979Z,95.51
2017-12-24T01:40:53.769Z,95.43
2017-12-24T01:43:23.567Z,95.48
2017-12-24T01:45:53.402Z,95.39
2017-12-24T01:48:23.214Z,95.50
2017-12-24T01:50:53.070Z,95.46
2017-12-24T01:53:23.165Z,95.42
2017-12-24T01:55:55.468Z,95.46
2017-12-24T01:58:25.260Z,95.32
2017-12-24T02:00:54.889Z,95.40
2017-12-24T02:03:24.492Z,95.24
2017-12-24T02:05:54.146Z,95.37
2017-12-24T02:08:23.926Z,95.28
2017-12-24T02:10:53.742Z,95.41
2017-12-24T02:13:23.604Z,95.63
2017-12-24T02:15:53.440Z,95.32
2017-12-24T02:18:23.060Z,95.46
2017-12-24T02:20:52.925Z,95.44
2017-12-24T02:23:22.792Z,95.54
2017-12-24T02:25:52.604Z,95.25
2017-12-24T02:28:22.468Z,95.33
2017-12-24T02:30:52.637Z,95.31
2017-12-24T02:33:22.490Z,95.33
2017-12-24T02:35:52.291Z,95.26
2017-12-24T02:38:22.117Z,95.35
2017-12-24T02:40:51.944Z,95.57
2017-12-24T02:43:21.797Z,95.44
2017-12-24T02:45:51.604Z,95.36
2017-12-24T02:48:21.395Z,95.28
2017-12-24T02:50:51.046Z,95.27
2017-12-24T02:53:20.859Z,95.32
2017-12-24T02:55:51.200Z,95.32
2017-12-24T02:58:21.039Z,95.12
2017-12-24T03:00:50.827Z,95.19
2017-12-24T03:03:20.668Z,95.29
2017-12-24T03:05:50.535Z,95.50
2017-12-24T03:08:20.401Z,95.66
2017-12-24T03:10:50.213Z,95.71
2017-12-24T03:13:20.062Z,95.52
2017-12-24T03:15:49.847Z,95.60
2017-12-24T03:18:19.692Z,95.77
2017-12-24T03:20:49.482Z,95.66
2017-12-24T03:23:19.282Z,95.51
2017-12-24T03:25:49.534Z,95.54
2017-12-24T03:28:19.341Z,95.40
2017-12-24T03:30:49.193Z,95.42
2017-12-24T03:33:19.019Z,95.34
2017-12-24T03:35:48.912Z,95.46
2017-12-24T03:38:18.706Z,95.73
2017-12-24T03:40:48.503Z,95.54
2017-12-24T03:43:18.321Z,95.43
2017-12-24T03:45:48.250Z,95.69
2017-12-24T03:48:18.082Z,95.61
2017-12-24T03:50:47.862Z,95.43
2017-12-24T03:53:17.697Z,95.44
2017-12-24T03:55:47.602Z,95.88
2017-12-24T03:58:17.370Z,95.69
2017-12-24T04:04:28.980Z,95.45
2017-12-24T04:07:04.351Z,95.72
2017-12-24T04:09:46.458Z,95.51
2017-12-24T04:12:24.578Z,95.46
2017-12-24T04:15:02.811Z,95.47
2017-12-24T04:17:35.244Z,95.50
2017-12-24T04:20:07.075Z,95.53
2017-12-24T04:22:39.162Z,95.55
2017-12-24T04:25:13.596Z,95.75
2017-12-24T04:27:44.964Z,95.64
2017-12-24T04:30:15.683Z,95.65
2017-12-24T04:32:46.606Z,95.65
2017-12-24T04:35:16.465Z,95.71
2017-12-24T04:37:46.271Z,95.65
2017-12-24T04:40:16.100Z,95.66
2017-12-24T04:42:45.950Z,95.62
2017-12-24T04:45:15.728Z,95.48
2017-12-24T04:47:45.598Z,95.75
2017-12-24T04:50:15.381Z,95.74
2017-12-24T04:52:45.186Z,95.70
2017-12-24T04:55:15.010Z,95.59
2017-12-24T04:57:46.258Z,95.54
2017-12-24T05:00:16.671Z,95.59
2017-12-24T05:02:46.700Z,95.52
2017-12-24T05:05:16.886Z,95.57
2017-12-24T05:07:47.170Z,95.55
2017-12-24T05:10:17.394Z,95.64
2017-12-24T05:12:47.786Z,95.57
2017-12-24T05:15:18.575Z,95.53
2017-12-24T05:17:49.014Z,95.66
2017-12-24T05:20:18.808Z,95.65
2017-12-24T05:22:48.740Z,95.90
2017-12-24T05:25:26.880Z,95.78
2017-12-24T05:27:57.050Z,96.06
2017-12-24T05:30:40.026Z,96.04
2017-12-24T05:33:25.528Z,95.86
2017-12-24T05:35:58.151Z,95.94
2017-12-24T05:38:36.607Z,95.94
2017-12-24T05:41:10.728Z,95.79
2017-12-24T05:43:40.602Z,95.76
2017-12-24T05:46:10.379Z,95.71
2017-12-24T05:48:40.312Z,95.59
2017-12-24T05:51:10.095Z,95.54
2017-12-24T05:53:42.032Z,95.70
2017-12-24T05:56:12.286Z,95.71
2017-12-24T05:59:04.721Z,95.73
2017-12-24T06:04:55.958Z,95.67
2017-12-24T06:10:39.475Z,95.68
2017-12-24T06:13:27.884Z,95.83
2017-12-24T06:16:21.492Z,95.75
2017-12-24T06:19:12.828Z,95.74
2017-12-24T06:22:03.657Z,95.66
2017-12-24T06:27:42.792Z,95.75
2017-12-24T06:30:31.065Z,95.69
2017-12-24T06:39:12.521Z,95.70
2017-12-24T06:42:03.040Z,95.59
2017-12-24T06:44:54.047Z,95.69
2017-12-24T06:47:45.154Z,95.61
2017-12-24T06:50:35.865Z,95.67
2017-12-24T06:53:25.183Z,96.00
2017-12-24T06:56:14.604Z,95.78
2017-12-24T06:59:05.013Z,95.70
2017-12-24T07:01:53.592Z,95.77
2017-12-24T07:04:45.799Z,95.64
2017-12-24T07:07:35.860Z,95.86
2017-12-24T07:10:27.092Z,95.63
2017-12-24T07:13:06.778Z,95.89
2017-12-24T07:15:36.971Z,95.75
2017-12-24T07:18:06.773Z,95.75
2017-12-24T07:20:36.628Z,95.86
2017-12-24T07:23:06.447Z,95.90
2017-12-24T07:25:36.283Z,95.72
2017-12-24T07:28:06.137Z,95.69
2017-12-24T07:30:35.927Z,95.75
2017-12-24T07:33:06.994Z,95.68
2017-12-24T07:35:36.835Z,95.90
2017-12-24T07:38:06.696Z,95.91
2017-12-24T07:40:36.491Z,95.89
2017-12-24T07:43:06.394Z,95.86
2017-12-24T07:45:36.193Z,95.80
2017-12-24T07:48:06.043Z,95.76
2017-12-24T07:50:35.850Z,95.67
2017-12-24T07:53:05.705Z,95.75
2017-12-24T07:55:42.028Z,95.60
2017-12-24T07:58:15.465Z,95.69
2017-12-24T08:00:57.050Z,95.87
2017-12-24T08:03:29.685Z,95.74
2017-12-24T08:05:59.551Z,95.78
2017-12-24T08:08:29.345Z,95.87
2017-12-24T08:10:59.189Z,95.80
2017-12-24T08:13:29.025Z,95.79
2017-12-24T08:15:58.875Z,95.69
2017-12-24T08:18:28.722Z,95.66
2017-12-24T08:20:58.525Z,95.83
2017-12-24T08:23:28.384Z,95.81
2017-12-24T08:25:58.175Z,95.87
2017-12-24T08:28:28.018Z,95.94
2017-12-24T08:30:57.802Z,95.98
2017-12-24T08:33:27.638Z,95.86
2017-12-24T08:35:57.432Z,95.77
2017-12-24T08:38:27.247Z,95.72
2017-12-24T08:40:57.101Z,96.00
2017-12-24T08:43:26.904Z,95.81
2017-12-24T08:45:56.733Z,95.85
2017-12-24T08:48:26.583Z,95.92
2017-12-24T08:50:56.391Z,96.01
2017-12-24T08:53:26.187Z,95.89
2017-12-24T08:55:56.010Z,95.91
2017-12-24T08:58:25.871Z,95.85
2017-12-24T09:00:55.739Z,95.89
2017-12-24T09:03:25.670Z,95.88
2017-12-24T09:05:55.504Z,95.75
2017-12-24T09:08:25.469Z,95.89
2017-12-24T09:10:55.337Z,95.73
2017-12-24T09:13:25.139Z,95.76
2017-12-24T09:15:54.985Z,95.74
2017-12-24T09:18:24.788Z,95.71
2017-12-24T09:20:54.643Z,95.74
2017-12-24T09:23:24.458Z,95.77
2017-12-24T09:25:53.982Z,95.75
2017-12-24T09:28:23.793Z,95.67
2017-12-24T09:30:53.623Z,95.64
2017-12-24T09:33:23.415Z,95.68
2017-12-24T09:35:53.238Z,95.82
2017-12-24T09:38:23.015Z,95.88
2017-12-24T09:40:52.797Z,95.77
2017-12-24T09:43:22.639Z,95.77
2017-12-24T09:45:52.488Z,95.82
2017-12-24T09:48:22.307Z,95.76
2017-12-24T09:50:52.346Z,95.74
2017-12-24T09:53:22.179Z,95.66
2017-12-24T09:55:52.043Z,95.68
2017-12-24T09:58:21.896Z,95.94
2017-12-24T10:00:51.944Z,95.91
2017-12-24T10:03:21.777Z,95.81
2017-12-24T10:05:51.787Z,95.75
2017-12-24T10:08:21.568Z,95.85
2017-12-24T10:10:51.401Z,95.76
2017-12-24T10:13:21.178Z,95.77
2017-12-24T10:15:50.959Z,95.86
2017-12-24T10:18:20.796Z,95.86
2017-12-24T10:20:50.619Z,95.86
2017-12-24T10:23:20.499Z,95.76
2017-12-24T10:25:50.372Z,95.69
2017-12-24T10:28:20.269Z,95.75
2017-12-24T10:30:50.139Z,95.80
2017-12-24T10:33:19.961Z,95.70
2017-12-24T10:35:49.817Z,95.84
2017-12-24T10:38:19.699Z,95.83
2017-12-24T10:40:49.618Z,95.86
2017-12-24T10:43:19.444Z,95.87
2017-12-24T10:45:49.300Z,95.74
2017-12-24T10:48:19.112Z,95.69
2017-12-24T10:50:48.941Z,95.59
2017-12-24T10:53:18.806Z,95.63
2017-12-24T10:55:48.619Z,95.56
2017-12-24T10:58:18.479Z,95.64
2017-12-24T11:00:48.315Z,95.58
2017-12-24T11:03:18.176Z,95.69
2017-12-24T11:05:48.029Z,95.54
2017-12-24T11:08:18.697Z,95.56
2017-12-24T11:10:48.566Z,95.63
2017-12-24T11:13:20.151Z,95.63
2017-12-24T11:15:50.004Z,95.75
2017-12-24T11:18:19.816Z,95.86
2017-12-24T11:20:49.656Z,95.66
2017-12-24T11:23:19.515Z,95.60
2017-12-24T11:25:49.456Z,95.64
2017-12-24T11:28:19.319Z,95.59
2017-12-24T11:30:49.147Z,95.72
2017-12-24T11:33:19.003Z,95.51
2017-12-24T11:35:48.826Z,95.52
2017-12-24T11:38:18.721Z,95.54
2017-12-24T11:40:48.554Z,95.44
2017-12-24T11:43:18.441Z,95.61
2017-12-24T11:45:48.288Z,95.48
2017-12-24T11:48:18.096Z,95.69
2017-12-24T11:50:47.963Z,95.55
2017-12-24T11:53:17.803Z,95.49
2017-12-24T11:55:47.630Z,95.64
2017-12-24T11:58:17.494Z,95.60
2017-12-24T12:00:47.507Z,95.56
2017-12-24T12:03:17.391Z,95.59
2017-12-24T12:05:47.234Z,95.60
2017-12-24T12:08:17.106Z,95.58
2017-12-24T12:10:46.962Z,95.53
2017-12-24T12:13:16.850Z,95.53
2017-12-24T12:15:46.668Z,95.52
2017-12-24T12:18:16.517Z,95.62
2017-12-24T12:20:46.401Z,95.72
2017-12-24T12:23:16.239Z,95.62
2017-12-24T12:25:45.850Z,95.66
2017-12-24T12:28:15.715Z,95.73
2017-12-24T12:30:45.518Z,95.56
2017-12-24T12:33:15.330Z,95.59
2017-12-24T12:35:46.067Z,95.53
2017-12-24T12:38:15.852Z,95.59
2017-12-24T12:40:45.699Z,95.56
2017-12-24T12:43:15.560Z,95.59
2017-12-24T12:45:45.376Z,95.46
2017-12-24T12:48:15.182Z,95.38
2017-12-24T12:50:44.968Z,95.45
2017-12-24T12:53:14.800Z,95.49
2017-12-24T12:55:46.983Z,95.46
2017-12-24T12:58:16.850Z,95.45
2017-12-24T13:00:46.661Z,95.70
2017-12-24T13:03:16.496Z,95.78
2017-12-24T13:05:46.610Z,95.66
2017-12-24T13:08:16.406Z,95.55
2017-12-24T13:10:46.242Z,95.55
2017-12-24T13:13:16.034Z,95.53
2017-12-24T13:15:46.609Z,95.70
2017-12-24T13:18:16.405Z,95.65
2017-12-24T13:20:46.330Z,95.68
2017-12-24T13:23:16.173Z,95.67
2017-12-24T13:25:47.294Z,95.62
2017-12-24T13:28:17.090Z,95.58
2017-12-24T13:30:46.892Z,95.63
2017-12-24T13:33:16.251Z,95.85
2017-12-24T13:35:46.830Z,96.03
2017-12-24T13:38:16.651Z,95.77
2017-12-24T13:40:46.543Z,95.81
2017-12-24T13:43:16.323Z,95.67
2017-12-24T13:45:46.845Z,95.60
2017-12-24T13:48:16.624Z,95.73
2017-12-24T13:50:46.448Z,95.74
2017-12-24T13:53:16.286Z,95.71
2017-12-24T13:55:46.290Z,95.73
2017-12-24T13:58:16.078Z,95.58
2017-12-24T14:00:45.900Z,95.54
2017-12-24T14:03:15.690Z,95.66
2017-12-24T14:05:46.119Z,95.64
2017-12-24T14:08:15.975Z,95.69
2017-12-24T14:10:45.744Z,95.61
2017-12-24T14:13:15.566Z,95.64
2017-12-24T14:15:46.428Z,95.71
2017-12-24T14:18:16.282Z,95.62
2017-12-24T14:20:46.839Z,95.57
2017-12-24T14:23:16.656Z,95.52
2017-12-24T14:25:46.521Z,95.51
2017-12-24T14:28:16.356Z,95.51
2017-12-24T14:30:46.142Z,95.56
2017-12-24T14:33:15.937Z,95.52
2017-12-24T14:35:47.797Z,95.58
2017-12-24T14:38:17.572Z,95.61
2017-12-24T14:40:47.398Z,95.63
2017-12-24T14:43:19.350Z,95.68
2017-12-24T14:45:49.206Z,95.69
2017-12-24T14:48:19.020Z,95.63
2017-12-24T14:50:48.826Z,95.84
2017-12-24T14:53:18.674Z,95.75
2017-12-24T14:55:48.455Z,95.75
2017-12-24T14:58:18.286Z,95.77
2017-12-24T15:00:48.090Z,95.75
2017-12-24T15:03:17.906Z,95.72
2017-12-24T15:05:49.247Z,95.78
2017-12-24T15:08:19.015Z,95.81
2017-12-24T15:10:48.876Z,95.56
2017-12-24T15:13:18.717Z,95.56
2017-12-24T15:15:48.534Z,95.70
2017-12-24T15:18:18.320Z,95.69
2017-12-24T15:20:48.126Z,95.60
2017-12-24T15:23:17.958Z,95.73
2017-12-24T15:25:49.798Z,95.78
2017-12-24T15:28:19.638Z,95.77
2017-12-24T15:30:49.478Z,95.77
2017-12-24T15:33:19.301Z,95.81
2017-12-24T15:35:49.736Z,96.00
2017-12-24T15:38:19.557Z,96.00
2017-12-24T15:40:49.328Z,95.87
2017-12-24T15:43:19.103Z,95.85
2017-12-24T15:45:48.926Z,95.77
2017-12-24T15:48:18.707Z,95.75
2017-12-24T15:50:48.546Z,95.87
2017-12-24T15:53:18.338Z,95.68
2017-12-24T15:55:49.906Z,95.78
2017-12-24T15:58:19.743Z,95.76
2017-12-24T16:00:49.601Z,95.73
2017-12-24T16:03:19.482Z,95.79
2017-12-24T16:05:49.329Z,95.75
2017-12-24T16:08:19.152Z,95.90
2017-12-24T16:10:48.983Z,95.90
2017-12-24T16:13:18.838Z,95.92
2017-12-24T16:15:49.623Z,95.99
2017-12-24T16:18:19.436Z,95.87
2017-12-24T16:20:49.279Z,96.15
2017-12-24T16:23:19.109Z,96.04
2017-12-24T16:25:49.732Z,96.12
2017-12-24T16:28:19.828Z,95.91
2017-12-24T16:30:49.675Z,95.97
2017-12-24T16:33:19.473Z,96.01
2017-12-24T16:35:50.353Z,95.92
2017-12-24T16:38:20.157Z,95.89
2017-12-24T16:40:50.008Z,95.88
2017-12-24T16:43:19.790Z,95.88
2017-12-24T16:45:49.765Z,95.78
2017-12-24T16:48:19.611Z,95.78
2017-12-24T16:50:49.421Z,95.87
2017-12-24T16:53:19.245Z,95.80
2017-12-24T16:55:49.056Z,95.85
2017-12-24T16:58:18.900Z,95.68
2017-12-24T17:00:48.702Z,95.82
2017-12-24T17:03:18.556Z,95.79
2017-12-24T17:05:48.602Z,96.08
2017-12-24T17:08:18.442Z,96.04
2017-12-24T17:10:48.279Z,95.94
2017-12-24T17:13:18.321Z,95.95
2017-12-24T17:15:49.650Z,95.91
2017-12-24T17:18:19.458Z,95.94
2017-12-24T17:20:49.295Z,96.01
2017-12-24T17:23:19.074Z,95.88
2017-12-24T17:25:49.166Z,95.86
2017-12-24T17:28:19.060Z,95.76
2017-12-24T17:30:48.856Z,95.85
2017-12-24T17:33:18.734Z,95.80
2017-12-24T17:35:48.541Z,95.77
2017-12-24T17:38:18.400Z,95.77
2017-12-24T17:40:48.191Z,95.79
2017-12-24T17:43:17.995Z,95.80
2017-12-24T17:45:47.871Z,95.88
2017-12-24T17:48:17.688Z,95.84
2017-12-24T17:50:47.520Z,95.75
2017-12-24T17:53:17.327Z,95.79
2017-12-24T17:55:49.443Z,95.71
2017-12-24T17:58:19.251Z,95.65
2017-12-24T18:00:49.139Z,95.81
2017-12-24T18:03:18.964Z,95.73
2017-12-24T18:05:48.816Z,95.89
2017-12-24T18:08:18.660Z,95.89
2017-12-24T18:10:48.494Z,96.02
2017-12-24T18:13:18.336Z,95.97
2017-12-24T18:15:48.949Z,95.90
2017-12-24T18:18:18.812Z,95.77
2017-12-24T18:20:48.647Z,95.94
2017-12-24T18:23:18.283Z,95.87
2017-12-24T18:25:48.150Z,95.82
2017-12-24T18:28:17.971Z,96.00
2017-12-24T18:30:47.772Z,95.87
2017-12-24T18:33:17.612Z,95.74
2017-12-24T18:35:47.683Z,96.03
2017-12-24T18:38:17.522Z,95.80
2017-12-24T18:40:47.358Z,95.74
2017-12-24T18:43:17.191Z,95.80
2017-12-24T18:45:47.060Z,95.87
2017-12-24T18:48:16.855Z,95.73
2017-12-24T18:50:46.699Z,95.83
2017-12-24T18:53:16.594Z,95.72
2017-12-24T18:55:49.467Z,95.82
2017-12-24T18:58:19.340Z,95.89
2017-12-24T19:00:49.188Z,95.80
2017-12-24T19:03:18.966Z,95.87
2017-12-24T19:05:50.302Z,95.92
2017-12-24T19:08:20.125Z,95.72
2017-12-24T19:10:49.935Z,95.81
2017-12-24T19:13:19.764Z,95.66
2017-12-24T19:15:49.576Z,95.53
2017-12-24T19:18:19.709Z,95.64
2017-12-24T19:20:49.715Z,95.77
2017-12-24T19:23:19.528Z,95.95
2017-12-24T19:25:49.399Z,95.70
2017-12-24T19:28:19.206Z,95.77
2017-12-24T19:30:49.070Z,95.70
2017-12-24T19:33:18.861Z,95.62
2017-12-24T19:35:49.124Z,95.66
2017-12-24T19:38:18.989Z,95.95
2017-12-24T19:40:48.770Z,95.61
2017-12-24T19:43:18.604Z,95.57
2017-12-24T19:45:50.880Z,95.52
2017-12-24T19:48:20.723Z,95.66
2017-12-24T19:50:50.520Z,95.66
2017-12-24T19:53:20.319Z,95.64
2017-12-24T19:55:50.241Z,95.61
2017-12-24T19:58:20.029Z,95.80
2017-12-24T20:00:49.884Z,95.59
2017-12-24T20:03:19.837Z,95.76
2017-12-24T20:05:49.694Z,95.62
2017-12-24T20:08:19.492Z,95.75
2017-12-24T20:10:49.285Z,95.90
2017-12-24T20:13:19.142Z,95.84
2017-12-24T20:15:49.214Z,95.85
2017-12-24T20:18:19.006Z,95.68
2017-12-24T20:20:48.839Z,95.75
2017-12-24T20:23:18.618Z,95.82
2017-12-24T20:25:49.798Z,95.89
2017-12-24T20:28:19.607Z,95.82
2017-12-24T20:30:49.398Z,95.83
2017-12-24T20:33:19.255Z,95.95
2017-12-24T20:35:49.167Z,95.84
2017-12-24T20:38:18.959Z,95.76
2017-12-24T20:40:48.788Z,95.82
2017-12-24T20:43:18.622Z,95.65
2017-12-24T20:45:49.057Z,95.64
2017-12-24T20:48:18.882Z,95.67
2017-12-24T20:50:48.696Z,95.74
2017-12-24T20:53:18.528Z,95.74
2017-12-24T20:55:49.652Z,95.79
2017-12-24T20:58:19.486Z,95.86
2017-12-24T21:00:49.287Z,95.82
2017-12-24T21:03:19.075Z,95.78
2017-12-24T21:05:48.892Z,95.59
2017-12-24T21:08:18.712Z,95.63
2017-12-24T21:10:48.550Z,95.54
2017-12-24T21:13:18.372Z,95.52
2017-12-24T21:15:48.204Z,95.45
2017-12-24T21:18:18.000Z,95.47
2017-12-24T21:20:47.843Z,95.54
2017-12-24T21:23:17.676Z,95.47
2017-12-24T21:25:47.454Z,95.38
2017-12-24T21:28:17.297Z,95.44
2017-12-24T21:30:47.132Z,95.42
2017-12-24T21:33:16.914Z,95.33
2017-12-24T21:35:47.987Z,95.11
2017-12-24T21:38:17.767Z,95.20
2017-12-24T21:40:47.558Z,95.17
2017-12-24T21:43:20.660Z,95.25
2017-12-24T21:45:51.064Z,95.22
2017-12-24T21:48:20.886Z,95.21
2017-12-24T21:50:50.682Z,95.40
2017-12-24T21:53:20.504Z,95.30
2017-12-24T21:55:50.284Z,95.20
2017-12-24T21:58:20.138Z,95.29
2017-12-24T22:00:49.927Z,95.24
2017-12-24T22:03:19.787Z,95.26
2017-12-24T22:05:49.594Z,95.28
2017-12-24T22:08:19.383Z,95.31
2017-12-24T22:10:49.213Z,95.25
2017-12-24T22:13:19.028Z,95.47
2017-12-24T22:15:48.859Z,95.60
2017-12-24T22:18:18.667Z,95.59
2017-12-24T22:20:48.470Z,95.52
2017-12-24T22:23:18.294Z,95.39
2017-12-24T22:25:48.088Z,95.30
2017-12-24T22:28:17.930Z,95.26
2017-12-24T22:30:47.716Z,95.45
2017-12-24T22:33:17.527Z,95.31
2017-12-24T22:35:47.383Z,95.42
2017-12-24T22:38:17.179Z,95.24
2017-12-24T22:40:47.014Z,95.25
2017-12-24T22:43:16.786Z,95.18
2017-12-24T22:45:48.333Z,95.21
2017-12-24T22:48:18.371Z,95.18
2017-12-24T22:50:48.151Z,95.27
2017-12-24T22:53:17.949Z,95.29
2017-12-24T22:55:49.854Z,95.34
2017-12-24T22:58:19.645Z,95.22
2017-12-24T23:00:49.519Z,95.34
2017-12-24T23:03:19.315Z,95.54
2017-12-24T23:05:49.151Z,95.30
2017-12-24T23:08:18.972Z,95.36
2017-12-24T23:10:48.817Z,95.40
2017-12-24T23:13:18.586Z,95.40
2017-12-24T23:15:52.394Z,95.30
2017-12-24T23:18:21.972Z,95.32
2017-12-24T23:20:51.814Z,95.42
2017-12-24T23:23:21.651Z,95.34
2017-12-24T23:25:56.631Z,95.25
2017-12-24T23:28:27.574Z,95.34
2017-12-24T23:30:57.338Z,95.09
2017-12-24T23:33:27.169Z,95.08
2017-12-24T23:35:56.958Z,94.97
2017-12-24T23:38:26.742Z,94.94
2017-12-24T23:40:56.550Z,94.99
2017-12-24T23:43:26.312Z,94.95
2017-12-24T23:45:56.133Z,95.04
2017-12-24T23:48:25.912Z,95.16
2017-12-24T23:50:55.741Z,95.17
2017-12-24T23:53:25.518Z,95.14
2017-12-24T23:55:55.307Z,95.23
2017-12-24T23:58:25.144Z,95.33
